createdAt,value
2022-09-29T00:04:35.178Z,8.3
2022-09-29T00:19:04.198Z,8.2
2022-09-29T00:33:35.208Z,8.1
2022-09-29T00:48:19.919Z,8.1
2022-09-29T01:02:49.224Z,8.2
2022-09-29T01:17:21.677Z,7.5
2022-09-29T01:31:53.816Z,7.2
2022-09-29T01:46:26.923Z,7
2022-09-29T02:00:53.752Z,6.8
2022-09-29T02:15:25.348Z,7.3
2022-09-29T02:29:55.240Z,7.1
2022-09-29T02:44:24.966Z,7
2022-09-29T02:58:56.466Z,6.8
2022-09-29T03:13:25.098Z,6.9
2022-09-29T03:27:55.454Z,6.8
2022-09-29T03:42:26.262Z,6.4
2022-09-29T03:56:57.810Z,6.5
2022-09-29T04:11:28.093Z,6.3
2022-09-29T04:25:58.916Z,6.3
2022-09-29T04:40:31.194Z,6.1
2022-09-29T04:55:01.426Z,6.3
2022-09-29T05:09:34.809Z,5.8
2022-09-29T05:24:04.552Z,5.8
2022-09-29T05:38:32.568Z,5.7
2022-09-29T05:53:03.538Z,5.9
2022-09-29T06:07:35.663Z,5.7
2022-09-29T06:22:05.781Z,5.7
2022-09-29T06:36:37.453Z,5.9
2022-09-29T06:51:11.097Z,6.3
2022-09-29T07:06:19.993Z,6.3
2022-09-29T07:20:33.200Z,6.3
2022-09-29T07:35:05.155Z,6.6
2022-09-29T07:49:37.973Z,7.1
2022-09-29T08:04:11.538Z,7.5
2022-09-29T08:18:46.116Z,9.3
2022-09-29T08:33:32.381Z,10.1
2022-09-29T08:48:24.249Z,9.1
2022-09-29T09:02:41.373Z,9.7
2022-09-29T09:17:14.132Z,10
2022-09-29T09:31:40.465Z,10.2
2022-09-29T09:46:09.502Z,11
2022-09-29T10:00:39.761Z,9.9
2022-09-29T10:15:12.505Z,9.7
2022-09-29T10:29:42.034Z,10.1
2022-09-29T10:44:13.370Z,10.8
2022-09-29T10:59:06.604Z,8.5
2022-09-29T11:13:28.609Z,10.5
2022-09-29T11:27:59.480Z,9.7
2022-09-29T11:42:29.908Z,8.4
2022-09-29T11:57:03.981Z,9
2022-09-29T12:12:25.236Z,8.9
2022-09-29T12:26:35.415Z,9.2
2022-09-29T12:41:05.708Z,9.2
2022-09-29T12:55:38.404Z,8.7
2022-09-29T13:10:09.596Z,7.6
2022-09-29T13:24:52.687Z,6.8
2022-09-29T13:39:16.691Z,6.3
2022-09-29T13:53:48.641Z,6.6
2022-09-29T14:08:21.703Z,6.2
2022-09-29T14:22:52.093Z,5.1
2022-09-29T14:37:27.988Z,5.7
2022-09-29T14:52:02.473Z,6.6
2022-09-29T15:06:36.264Z,5.6
2022-09-29T15:21:02.853Z,5.6
2022-09-29T15:35:39.521Z,6.6
2022-09-29T15:50:13.141Z,7
2022-09-29T16:04:39.015Z,8
2022-09-29T16:19:15.480Z,8
2022-09-29T16:33:48.062Z,8.1
2022-09-29T16:48:15.361Z,8.4
2022-09-29T17:02:44.840Z,8.4
2022-09-29T17:17:12.820Z,7.9
2022-09-29T17:31:41.177Z,8.3
2022-09-29T17:46:11.875Z,8.1
2022-09-29T18:00:41.313Z,8
2022-09-29T18:15:11.605Z,8.3
2022-09-29T18:29:41.176Z,8.6
2022-09-29T18:44:11.991Z,8.4
2022-09-29T18:58:42.737Z,8.5
2022-09-29T19:13:13.843Z,8.6
2022-09-29T19:27:44.623Z,8.6
2022-09-29T19:42:15.038Z,8.5
2022-09-29T19:56:45.417Z,8.8
2022-09-29T20:11:16.851Z,9.1
2022-09-29T20:25:48.473Z,9
2022-09-29T20:40:19.131Z,9.3
2022-09-29T20:54:51.069Z,9.2
2022-09-29T21:09:23.152Z,9.2
2022-09-29T21:23:53.857Z,9.1
2022-09-29T21:38:24.981Z,9.3
2022-09-29T21:52:56.538Z,9.2
2022-09-29T22:07:26.957Z,9.2
2022-09-29T22:21:57.303Z,9.5
2022-09-29T22:36:29.297Z,9
2022-09-29T22:51:00.746Z,8.7
2022-09-29T23:05:33.973Z,8.5
2022-09-29T23:20:02.562Z,8.2
2022-09-29T23:34:33.131Z,7.8
2022-09-29T23:49:04.619Z,7.4
